createdAt,value
2022-12-23T00:01:16.962Z,42.83
2022-12-23T00:03:45.025Z,41.10
2022-12-23T00:06:17.293Z,41.63
2022-12-23T00:08:44.968Z,40.83
2022-12-23T00:11:14.161Z,39.13
2022-12-23T00:14:03.050Z,35.50
2022-12-23T00:16:36.713Z,39.42
2022-12-23T00:19:04.536Z,43.03
2022-12-23T00:21:32.433Z,32.40
2022-12-23T00:24:08.888Z,39.75
2022-12-23T00:26:36.036Z,45.42
2022-12-23T00:29:03.244Z,45.03
2022-12-23T00:31:30.503Z,42.35
2022-12-23T00:33:57.728Z,36.47
2022-12-23T00:36:28.012Z,42.47
2022-12-23T00:39:14.493Z,38.97
2022-12-23T00:42:06.173Z,39.97
2022-12-23T00:44:33.748Z,44.97
2022-12-23T00:47:01.287Z,38.60
2022-12-23T00:49:43.578Z,45.13
2022-12-23T00:52:12.277Z,45.70
2022-12-23T00:54:39.568Z,44.05
2022-12-23T00:57:06.757Z,50.55
2022-12-23T00:59:34.255Z,39.50
2022-12-23T01:02:21.153Z,50.83
2022-12-23T01:05:07.089Z,40.10
2022-12-23T01:07:34.302Z,40.17
2022-12-23T01:10:01.436Z,39.65
2022-12-23T01:12:28.658Z,45.03
2022-12-23T01:14:55.782Z,41.53
2022-12-23T01:17:23.016Z,39.55
2022-12-23T01:19:51.345Z,43.78
2022-12-23T01:22:18.545Z,43.20
2022-12-23T01:24:45.691Z,46.20
2022-12-23T01:27:12.820Z,41.58
2022-12-23T01:29:40.102Z,48.45
2022-12-23T01:32:08.029Z,49.20
2022-12-23T01:34:37.560Z,47.92
2022-12-23T01:37:05.274Z,44.57
2022-12-23T01:39:32.517Z,42.83
2022-12-23T01:42:18.791Z,45.05
2022-12-23T01:44:52.304Z,48.53
2022-12-23T01:47:39.932Z,49.70
2022-12-23T01:50:10.398Z,44.03
2022-12-23T01:52:50.309Z,43.08
2022-12-23T01:55:23.385Z,41.72
2022-12-23T01:57:51.343Z,60.08
2022-12-23T02:00:37.746Z,50.25
2022-12-23T02:03:26.838Z,45.27
2022-12-23T02:06:17.780Z,57.08
2022-12-23T02:09:07.169Z,55.35
2022-12-23T02:11:39.891Z,51.20
2022-12-23T02:14:29.054Z,45.92
2022-12-23T02:17:03.821Z,52.57
2022-12-23T02:19:59.199Z,40.78
2022-12-23T02:22:44.464Z,45.63
2022-12-23T02:25:11.553Z,45.90
2022-12-23T02:28:03.036Z,44.22
2022-12-23T02:30:36.341Z,43.53
2022-12-23T02:33:19.596Z,42.33
2022-12-23T02:36:07.479Z,37.33
2022-12-23T02:38:53.674Z,31.42
2022-12-23T02:41:26.433Z,32.92
2022-12-23T02:44:10.696Z,30.10
2022-12-23T02:46:43.035Z,33.42
2022-12-23T02:49:16.964Z,32.17
2022-12-23T02:52:01.850Z,32.85
2022-12-23T02:54:35.621Z,28.88
2022-12-23T02:57:08.092Z,29.03
2022-12-23T02:59:38.229Z,35.92
2022-12-23T03:02:05.573Z,33.33
2022-12-23T03:04:33.444Z,31.83
2022-12-23T03:07:07.146Z,32.35
2022-12-23T03:09:48.421Z,33.77
2022-12-23T03:12:41.333Z,31.90
2022-12-23T03:15:08.738Z,32.03
2022-12-23T03:17:56.148Z,34.53
2022-12-23T03:20:26.719Z,36.63
2022-12-23T03:23:04.890Z,32.87
2022-12-23T03:25:50.948Z,32.80
2022-12-23T03:28:38.825Z,31.83
2022-12-23T03:31:08.906Z,28.67
2022-12-23T03:33:38.333Z,32.38
2022-12-23T03:36:11.728Z,29.77
2022-12-23T03:38:41.306Z,28.48
2022-12-23T03:41:20.292Z,28.00
2022-12-23T03:43:51.145Z,26.40
2022-12-23T03:46:29.912Z,26.00
2022-12-23T03:48:59.058Z,26.53
2022-12-23T03:51:33.541Z,26.23
2022-12-23T03:54:04.257Z,29.20
2022-12-23T03:56:43.426Z,26.80
2022-12-23T03:59:24.269Z,27.05
2022-12-23T04:02:02.563Z,21.60
2022-12-23T04:04:48.882Z,27.00
2022-12-23T04:07:24.793Z,24.05
2022-12-23T04:09:53.241Z,29.70
2022-12-23T04:12:22.724Z,29.40
2022-12-23T04:14:50.991Z,25.33
2022-12-23T04:17:18.950Z,28.20
2022-12-23T04:19:50.684Z,27.30
2022-12-23T04:22:19.172Z,27.45
2022-12-23T04:24:46.629Z,30.70
2022-12-23T04:27:14.962Z,31.83
2022-12-23T04:29:42.340Z,29.50
2022-12-23T04:32:09.901Z,34.92
2022-12-23T04:34:37.166Z,35.10
2022-12-23T04:37:04.348Z,39.22
2022-12-23T04:39:31.662Z,29.77
2022-12-23T04:41:59.164Z,39.03
2022-12-23T04:44:26.540Z,35.05
2022-12-23T04:46:53.978Z,33.22
2022-12-23T04:49:22.551Z,36.40
2022-12-23T04:51:49.869Z,40.57
2022-12-23T04:54:17.390Z,38.85
2022-12-23T04:56:44.655Z,45.70
2022-12-23T04:59:12.042Z,38.90
2022-12-23T05:01:39.426Z,36.50
2022-12-23T05:04:06.916Z,36.87
2022-12-23T05:06:34.239Z,36.35
2022-12-23T05:09:01.634Z,37.20
2022-12-23T05:11:30.046Z,48.17
2022-12-23T05:13:57.582Z,39.83
2022-12-23T05:16:24.998Z,41.07
2022-12-23T05:18:52.570Z,34.83
2022-12-23T05:21:19.826Z,40.20
2022-12-23T05:23:47.137Z,38.63
2022-12-23T05:26:14.433Z,42.63
2022-12-23T05:28:42.970Z,41.93
2022-12-23T05:31:11.277Z,38.90
2022-12-23T05:33:38.538Z,31.85
2022-12-23T05:36:06.004Z,36.58
2022-12-23T05:38:33.197Z,39.65
2022-12-23T05:41:00.466Z,32.57
2022-12-23T05:43:27.687Z,34.25
2022-12-23T05:45:54.967Z,32.95
2022-12-23T05:48:22.382Z,40.55
2022-12-23T05:50:51.038Z,38.45
2022-12-23T05:53:18.738Z,41.43
2022-12-23T05:55:45.981Z,33.45
2022-12-23T05:58:13.144Z,42.05
2022-12-23T06:00:40.302Z,41.88
2022-12-23T06:03:07.732Z,42.47
2022-12-23T06:05:37.729Z,39.13
2022-12-23T06:08:05.219Z,44.00
2022-12-23T06:10:32.421Z,38.33
2022-12-23T06:12:59.634Z,42.10
2022-12-23T06:15:26.822Z,42.55
2022-12-23T06:17:56.344Z,40.87
2022-12-23T06:20:23.524Z,45.92
2022-12-23T06:22:50.855Z,42.90
2022-12-23T06:25:18.052Z,43.75
2022-12-23T06:27:45.322Z,44.22
2022-12-23T06:30:12.517Z,46.90
2022-12-23T06:32:39.834Z,42.95
2022-12-23T06:35:07.893Z,49.78
2022-12-23T06:37:35.407Z,41.45
2022-12-23T06:40:02.863Z,45.95
2022-12-23T06:42:30.100Z,52.13
2022-12-23T06:44:57.290Z,43.30
2022-12-23T06:47:24.414Z,41.20
2022-12-23T06:49:51.615Z,49.33
2022-12-23T06:52:18.770Z,43.35
2022-12-23T06:54:45.908Z,47.93
2022-12-23T06:57:13.483Z,44.65
2022-12-23T06:59:40.730Z,39.28
2022-12-23T07:02:08.104Z,42.78
2022-12-23T07:04:35.730Z,49.00
2022-12-23T07:07:02.878Z,50.57
2022-12-23T07:09:30.033Z,55.65
2022-12-23T07:11:57.203Z,52.30
2022-12-23T07:14:24.393Z,62.92
2022-12-23T07:16:51.822Z,52.60
2022-12-23T07:19:21.559Z,47.30
2022-12-23T07:21:48.722Z,43.47
2022-12-23T07:24:15.971Z,52.22
2022-12-23T07:26:43.106Z,48.10
2022-12-23T07:29:10.306Z,42.15
2022-12-23T07:31:40.960Z,63.50
2022-12-23T07:34:09.044Z,73.93
2022-12-23T07:36:36.601Z,54.03
2022-12-23T07:39:03.959Z,50.35
2022-12-23T07:41:31.323Z,41.85
2022-12-23T07:43:58.851Z,44.97
2022-12-23T07:46:26.161Z,49.80
2022-12-23T07:48:53.542Z,56.00
2022-12-23T07:51:20.824Z,48.17
2022-12-23T07:53:52.546Z,55.30
2022-12-23T07:56:21.368Z,49.27
2022-12-23T07:58:52.527Z,48.47
2022-12-23T08:01:20.032Z,51.33
2022-12-23T08:03:47.682Z,54.83
2022-12-23T08:06:15.418Z,53.70
2022-12-23T08:08:44.093Z,61.00
2022-12-23T08:11:12.011Z,56.08
2022-12-23T08:13:41.964Z,47.40
2022-12-23T08:16:10.425Z,49.40
2022-12-23T08:18:39.062Z,64.72
2022-12-23T08:21:08.299Z,59.83
2022-12-23T08:23:36.391Z,56.53
2022-12-23T08:26:07.989Z,51.25
2022-12-23T08:28:36.014Z,49.55
2022-12-23T08:31:07.331Z,57.05
2022-12-23T08:33:35.430Z,56.00
2022-12-23T08:36:03.266Z,50.42
2022-12-23T08:38:33.310Z,50.08
2022-12-23T08:41:00.967Z,59.88
2022-12-23T08:43:35.790Z,58.13
2022-12-23T08:46:03.888Z,50.73
2022-12-23T08:48:31.399Z,50.33
2022-12-23T08:50:58.591Z,61.17
2022-12-23T08:53:25.809Z,54.38
2022-12-23T08:55:53.038Z,54.75
2022-12-23T08:58:20.505Z,56.17
2022-12-23T09:00:51.120Z,71.30
2022-12-23T09:03:18.406Z,78.18
2022-12-23T09:05:45.734Z,99.05
2022-12-23T09:08:12.856Z,95.40
2022-12-23T09:10:49.505Z,102.20
2022-12-23T09:13:26.349Z,101.63
2022-12-23T09:15:58.295Z,91.80
2022-12-23T09:18:25.711Z,97.20
2022-12-23T09:21:02.583Z,117.63
2022-12-23T09:23:32.561Z,95.03
2022-12-23T09:26:02.166Z,108.57
2022-12-23T09:28:29.273Z,87.07
2022-12-23T09:30:56.718Z,89.28
2022-12-23T09:33:26.424Z,104.35
2022-12-23T09:35:53.554Z,90.80
2022-12-23T09:38:20.723Z,85.88
2022-12-23T09:40:48.182Z,72.05
2022-12-23T09:43:15.402Z,60.78
2022-12-23T09:45:56.616Z,65.45
2022-12-23T09:48:26.651Z,42.83
2022-12-23T09:50:54.449Z,56.53
2022-12-23T09:53:23.756Z,63.67
2022-12-23T09:55:58.807Z,52.72
2022-12-23T09:58:26.276Z,54.75
2022-12-23T10:01:12.514Z,45.83
2022-12-23T10:03:58.500Z,49.92
2022-12-23T10:06:30.041Z,46.72
2022-12-23T10:09:02.971Z,56.13
2022-12-23T10:11:35.060Z,57.42
2022-12-23T10:14:13.249Z,51.90
2022-12-23T10:16:45.368Z,49.70
2022-12-23T10:19:22.385Z,51.53
2022-12-23T10:21:51.378Z,52.03
2022-12-23T10:24:45.161Z,61.65
2022-12-23T10:27:21.665Z,67.40
2022-12-23T10:29:49.079Z,58.85
2022-12-23T10:32:49.233Z,55.03
2022-12-23T10:35:22.921Z,51.10
2022-12-23T10:37:57.926Z,62.40
2022-12-23T10:40:39.625Z,64.63
2022-12-23T10:43:28.855Z,61.88
2022-12-23T10:46:08.978Z,56.80
2022-12-23T10:48:56.499Z,58.38
2022-12-23T10:51:30.770Z,59.30
2022-12-23T10:54:07.186Z,62.50
2022-12-23T10:56:34.907Z,64.53
2022-12-23T10:59:03.283Z,66.07
2022-12-23T11:01:44.385Z,65.93
2022-12-23T11:04:15.885Z,67.03
2022-12-23T11:07:26.400Z,76.50
2022-12-23T11:09:48.768Z,66.03
2022-12-23T11:12:15.982Z,63.90
2022-12-23T11:14:52.016Z,71.60
2022-12-23T11:17:21.518Z,65.93
2022-12-23T11:19:49.402Z,65.87
2022-12-23T11:22:28.003Z,73.30
2022-12-23T11:24:56.652Z,75.65
2022-12-23T11:27:24.175Z,68.55
2022-12-23T11:29:54.686Z,69.97
2022-12-23T11:32:24.983Z,72.90
2022-12-23T11:34:53.077Z,75.75
2022-12-23T11:37:42.249Z,77.65
2022-12-23T11:40:21.633Z,91.05
2022-12-23T11:42:53.473Z,82.55
2022-12-23T11:45:25.574Z,94.53
2022-12-23T11:47:53.167Z,93.35
2022-12-23T11:50:40.967Z,110.80
2022-12-23T11:53:13.393Z,94.72
2022-12-23T11:55:45.987Z,96.47
2022-12-23T11:58:22.918Z,85.37
2022-12-23T12:00:56.039Z,104.45
2022-12-23T12:03:26.717Z,100.45
2022-12-23T12:05:56.442Z,105.05
2022-12-23T12:08:25.979Z,89.88
2022-12-23T12:10:54.042Z,88.13
2022-12-23T12:13:31.635Z,84.45
2022-12-23T12:16:14.300Z,87.20
2022-12-23T12:18:42.705Z,76.97
2022-12-23T12:21:13.944Z,82.47
2022-12-23T12:23:44.346Z,69.90
2022-12-23T12:26:14.581Z,78.93
2022-12-23T12:28:43.201Z,68.00
2022-12-23T12:31:19.948Z,72.90
2022-12-23T12:33:54.497Z,68.05
2022-12-23T12:36:40.183Z,74.70
2022-12-23T12:39:14.177Z,77.05
2022-12-23T12:41:49.140Z,69.20
2022-12-23T12:44:39.833Z,68.68
2022-12-23T12:47:28.507Z,64.38
2022-12-23T12:50:03.317Z,58.30
2022-12-23T12:52:33.882Z,64.55
2022-12-23T12:55:14.051Z,63.78
2022-12-23T12:57:42.067Z,55.40
2022-12-23T13:00:20.375Z,53.35
2022-12-23T13:02:54.838Z,49.80
2022-12-23T13:05:41.071Z,50.72
2022-12-23T13:08:20.741Z,48.92
2022-12-23T13:10:54.969Z,40.58
2022-12-23T13:13:41.193Z,43.13
2022-12-23T13:16:17.684Z,39.17
2022-12-23T13:18:53.080Z,40.45
2022-12-23T13:21:23.124Z,39.05
2022-12-23T13:23:59.242Z,45.78
2022-12-23T13:26:41.505Z,46.35
2022-12-23T13:29:24.575Z,45.17
2022-12-23T13:32:15.768Z,36.10
2022-12-23T13:35:01.925Z,42.72
2022-12-23T13:38:08.036Z,47.65
2022-12-23T13:40:44.146Z,40.40
2022-12-23T13:43:15.592Z,36.80
2022-12-23T13:45:43.851Z,34.40
2022-12-23T13:48:29.547Z,37.85
2022-12-23T13:50:56.776Z,35.17
2022-12-23T13:53:45.023Z,41.78
2022-12-23T13:56:27.405Z,34.73
2022-12-23T13:58:55.071Z,34.80
2022-12-23T14:01:36.358Z,42.55
2022-12-23T14:04:39.635Z,30.23
2022-12-23T14:07:21.430Z,34.33
2022-12-23T14:09:55.361Z,34.83
2022-12-23T14:12:30.327Z,37.83
2022-12-23T14:15:06.925Z,34.10
2022-12-23T14:18:02.552Z,33.78
2022-12-23T14:20:42.249Z,31.17
2022-12-23T14:23:22.369Z,31.73
2022-12-23T14:25:58.426Z,29.00
2022-12-23T14:28:36.306Z,30.58
2022-12-23T14:31:05.719Z,30.27
2022-12-23T14:33:34.724Z,27.92
2022-12-23T14:36:20.739Z,32.33
2022-12-23T14:39:06.867Z,32.80
2022-12-23T14:41:42.454Z,24.83
2022-12-23T14:44:21.244Z,31.90
2022-12-23T14:46:49.136Z,31.38
2022-12-23T14:49:39.005Z,29.30
2022-12-23T14:52:28.798Z,30.35
2022-12-23T14:55:28.564Z,25.65
2022-12-23T14:57:44.624Z,25.45
2022-12-23T15:00:14.469Z,31.45
2022-12-23T15:02:41.735Z,27.27
2022-12-23T15:05:09.538Z,21.75
2022-12-23T15:07:47.497Z,25.30
2022-12-23T15:10:26.996Z,24.88
2022-12-23T15:12:56.974Z,26.38
2022-12-23T15:15:26.436Z,26.80
2022-12-23T15:18:04.651Z,35.92
2022-12-23T15:20:31.999Z,26.02
2022-12-23T15:23:03.418Z,24.83
2022-12-23T15:25:35.793Z,28.02
2022-12-23T15:28:04.597Z,41.17
2022-12-23T15:30:39.667Z,26.30
2022-12-23T15:33:27.961Z,27.60
2022-12-23T15:35:55.668Z,28.48
2022-12-23T15:38:27.572Z,34.22
2022-12-23T15:41:07.534Z,37.13
2022-12-23T15:43:41.405Z,30.38
2022-12-23T15:46:10.757Z,35.50
2022-12-23T15:48:41.467Z,35.42
2022-12-23T15:51:13.343Z,29.55
2022-12-23T15:53:41.878Z,29.65
2022-12-23T15:56:11.187Z,28.60
2022-12-23T15:58:44.367Z,33.45
2022-12-23T16:01:34.323Z,25.85
2022-12-23T16:04:03.455Z,21.65
2022-12-23T16:06:34.083Z,19.10
2022-12-23T16:09:03.017Z,19.50
2022-12-23T16:12:09.023Z,20.98
2022-12-23T16:14:43.135Z,21.00
2022-12-23T16:17:11.440Z,41.22
2022-12-23T16:19:40.566Z,25.55
2022-12-23T16:22:20.842Z,21.63
2022-12-23T16:24:49.978Z,22.50
2022-12-23T16:27:20.977Z,20.63
2022-12-23T16:29:49.411Z,21.05
2022-12-23T16:32:22.949Z,22.23
2022-12-23T16:34:52.005Z,21.13
2022-12-23T16:37:21.775Z,24.05
2022-12-23T16:39:48.954Z,23.38
2022-12-23T16:42:16.146Z,20.73
2022-12-23T16:44:43.348Z,24.65
2022-12-23T16:47:16.039Z,25.33
2022-12-23T16:49:46.555Z,23.48
2022-12-23T16:52:14.944Z,31.30
2022-12-23T16:54:42.990Z,22.50
2022-12-23T16:57:11.291Z,23.52
2022-12-23T16:59:42.331Z,21.17
2022-12-23T17:02:19.694Z,22.75
2022-12-23T17:04:47.564Z,24.00
2022-12-23T17:07:16.817Z,27.48
2022-12-23T17:09:47.311Z,26.83
2022-12-23T17:12:14.548Z,24.15
2022-12-23T17:14:43.210Z,26.73
2022-12-23T17:17:18.297Z,27.67
2022-12-23T17:19:48.734Z,27.52
2022-12-23T17:22:16.182Z,29.23
2022-12-23T17:24:43.448Z,27.47
2022-12-23T17:27:15.009Z,33.35
2022-12-23T17:29:42.409Z,29.60
2022-12-23T17:32:19.681Z,30.13
2022-12-23T17:34:47.019Z,32.25
2022-12-23T17:37:14.265Z,30.53
2022-12-23T17:39:42.277Z,37.53
2022-12-23T17:42:21.747Z,34.55
2022-12-23T17:44:52.559Z,34.78
2022-12-23T17:47:22.477Z,34.85
2022-12-23T17:49:50.174Z,34.43
2022-12-23T17:52:21.972Z,34.83
2022-12-23T17:54:50.529Z,28.77
2022-12-23T17:57:19.839Z,32.28
2022-12-23T17:59:48.039Z,30.35
2022-12-23T18:02:23.196Z,29.57
2022-12-23T18:04:53.064Z,38.40
2022-12-23T18:07:20.627Z,36.30
2022-12-23T18:09:48.234Z,45.58
2022-12-23T18:12:31.417Z,34.95
2022-12-23T18:14:58.751Z,38.37
2022-12-23T18:17:25.954Z,36.33
2022-12-23T18:19:53.104Z,39.35
2022-12-23T18:22:26.995Z,39.22
2022-12-23T18:24:59.057Z,45.25
2022-12-23T18:27:26.802Z,47.03
2022-12-23T18:29:54.049Z,35.78
2022-12-23T18:32:27.214Z,33.55
2022-12-23T18:34:55.472Z,43.15
2022-12-23T18:37:28.586Z,41.38
2022-12-23T18:39:55.846Z,31.90
2022-12-23T18:42:23.147Z,43.85
2022-12-23T18:44:50.566Z,34.80
2022-12-23T18:47:17.978Z,38.30
2022-12-23T18:49:45.360Z,36.05
2022-12-23T18:52:13.858Z,37.47
2022-12-23T18:54:41.495Z,34.50
2022-12-23T18:57:11.232Z,35.78
2022-12-23T18:59:39.754Z,40.80
2022-12-23T19:02:07.057Z,29.00
2022-12-23T19:04:34.401Z,44.23
2022-12-23T19:07:01.618Z,33.40
2022-12-23T19:09:28.764Z,27.52
2022-12-23T19:11:55.989Z,42.25
2022-12-23T19:14:23.398Z,28.80
2022-12-23T19:16:52.222Z,36.97
2022-12-23T19:19:19.693Z,39.67
2022-12-23T19:21:46.859Z,32.33
2022-12-23T19:24:14.023Z,30.02
2022-12-23T19:26:41.276Z,40.45
2022-12-23T19:29:09.019Z,27.10
2022-12-23T19:31:36.226Z,33.58
2022-12-23T19:34:03.630Z,30.58
2022-12-23T19:36:31.267Z,30.00
2022-12-23T19:38:58.767Z,37.03
2022-12-23T19:41:26.243Z,37.17
2022-12-23T19:43:53.472Z,33.08
2022-12-23T19:46:20.889Z,38.90
2022-12-23T19:48:56.023Z,33.35
2022-12-23T19:51:24.751Z,31.85
2022-12-23T19:53:54.762Z,36.03
2022-12-23T19:56:22.358Z,31.13
2022-12-23T19:58:49.978Z,32.90
2022-12-23T20:01:18.403Z,27.60
2022-12-23T20:03:46.465Z,36.72
2022-12-23T20:06:24.512Z,28.63
2022-12-23T20:08:56.341Z,30.52
2022-12-23T20:11:30.374Z,33.45
2022-12-23T20:13:58.389Z,23.58
2022-12-23T20:16:25.784Z,30.98
2022-12-23T20:18:53.262Z,25.57
2022-12-23T20:21:20.653Z,24.58
2022-12-23T20:23:48.124Z,19.85
2022-12-23T20:26:16.114Z,19.52
2022-12-23T20:28:43.443Z,20.65
2022-12-23T20:31:13.658Z,19.60
2022-12-23T20:33:42.731Z,20.35
2022-12-23T20:36:12.470Z,19.30
2022-12-23T20:38:41.548Z,11.77
2022-12-23T20:41:10.376Z,21.00
2022-12-23T20:43:40.321Z,17.47
2022-12-23T20:46:09.844Z,14.77
2022-12-23T20:48:37.082Z,15.15
2022-12-23T20:51:14.584Z,24.30
2022-12-23T20:53:45.372Z,22.25
2022-12-23T20:56:13.848Z,22.90
2022-12-23T20:59:16.552Z,27.15
2022-12-23T21:01:43.781Z,23.70
2022-12-23T21:04:12.928Z,23.38
2022-12-23T21:06:40.599Z,14.85
2022-12-23T21:09:08.925Z,23.67
2022-12-23T21:11:39.282Z,15.68
2022-12-23T21:14:07.911Z,21.02
2022-12-23T21:16:39.550Z,18.63
2022-12-23T21:19:07.932Z,21.98
2022-12-23T21:21:35.199Z,22.87
2022-12-23T21:24:04.694Z,18.90
2022-12-23T21:26:33.410Z,20.50
2022-12-23T21:29:01.586Z,16.30
2022-12-23T21:31:30.092Z,15.35
2022-12-23T21:33:58.427Z,24.70
2022-12-23T21:36:27.340Z,18.95
2022-12-23T21:38:55.053Z,18.83
2022-12-23T21:41:25.083Z,17.45
2022-12-23T21:43:53.285Z,19.77
2022-12-23T21:46:22.559Z,16.67
2022-12-23T21:48:50.593Z,18.42
2022-12-23T21:51:19.036Z,22.65
2022-12-23T21:53:47.271Z,22.27
2022-12-23T21:56:15.888Z,22.20
2022-12-23T21:58:45.302Z,13.73
2022-12-23T22:01:13.076Z,19.55
2022-12-23T22:03:46.759Z,20.38
2022-12-23T22:06:15.864Z,18.25
2022-12-23T22:08:43.110Z,14.68
2022-12-23T22:11:11.577Z,23.33
2022-12-23T22:13:38.939Z,19.33
2022-12-23T22:16:10.697Z,26.08
2022-12-23T22:18:39.284Z,21.20
2022-12-23T22:21:09.397Z,14.40
2022-12-23T22:23:38.248Z,20.33
2022-12-23T22:26:06.250Z,20.02
2022-12-23T22:28:37.271Z,20.65
2022-12-23T22:31:05.872Z,16.33
2022-12-23T22:33:33.780Z,14.93
2022-12-23T22:36:01.386Z,18.97
2022-12-23T22:38:30.386Z,17.38
2022-12-23T22:41:02.770Z,22.48
2022-12-23T22:43:34.250Z,16.45
2022-12-23T22:46:02.114Z,16.45
2022-12-23T22:48:30.648Z,19.63
2022-12-23T22:51:25.247Z,19.02
2022-12-23T22:53:52.706Z,15.25
2022-12-23T22:56:23.843Z,18.73
2022-12-23T22:58:52.280Z,18.27
2022-12-23T23:01:23.900Z,16.50
2022-12-23T23:03:57.620Z,17.10
2022-12-23T23:06:26.871Z,16.30
2022-12-23T23:08:54.928Z,19.73
2022-12-23T23:11:23.438Z,16.42
2022-12-23T23:13:51.005Z,21.30
2022-12-23T23:16:20.841Z,18.90
2022-12-23T23:18:48.236Z,18.63
2022-12-23T23:21:16.021Z,19.27
2022-12-23T23:23:43.281Z,23.98
2022-12-23T23:26:10.467Z,20.23
2022-12-23T23:28:39.319Z,27.40
2022-12-23T23:31:40.477Z,25.45
2022-12-23T23:33:57.991Z,17.75
2022-12-23T23:36:25.474Z,25.73
2022-12-23T23:38:52.682Z,21.33
2022-12-23T23:41:23.165Z,24.13
2022-12-23T23:43:51.149Z,15.63
2022-12-23T23:46:18.557Z,22.85
2022-12-23T23:48:51.702Z,17.80
2022-12-23T23:51:19.638Z,22.50
2022-12-23T23:53:50.007Z,23.05
2022-12-23T23:56:23.748Z,17.48
2022-12-23T23:58:58.013Z,21.45
